PWSweather.com
Personal Weather Stations
Station Observations
KVAGLENALL
West Henrico, Glen Allen, VA 23060-6503

West HenricoGlen Allen, VA 23060-6503

Lat: 37.6554, Lon: -77.5693

Elevation: 273

Station Type: Davis Vantage Pro II

www.glenallenweather.com

High Low Average
Temperature 57.4°F14.1°C 33.2°F0.7°C 44.5°F6.9°C
Dew Point 44.9°F7.2°C 31.6°F-0.2°C 39.0°F3.9°C
Winds 5.0 mph 8.0 kmh Calm Calm 1.0 mph SE1.6 kmh SE
Wind Gusts 7.1 mph11.4 kmh -- 3.0 mph4.8 kmh
Humidity 95% 60% 82%
Pressure 30.28 in1025.4 mb 30.07 in1018.3 mb -
Precipitation 0.00 in0.0 mm - -
Hour Temp Dew Point Humidity Winds Wind Gusts Pressure Precip Precip Rate Daily Precip Total
12:00 AM 37.1°F2.8°C 35.0°F1.7°C 92% 1.0 mph N1.6 kmh N 3.0 mph4.8 kmh 30.28 in1025.4 mb 0.00 in0.0 mm 0.00 in0.0 mm 0.00 in0.0 mm
01:00 AM 37.0°F2.8°C 34.9°F1.6°C 92% 1.0 mph N1.6 kmh N 3.0 mph4.8 kmh 30.27 in1025.1 mb 0.00 in0.0 mm 0.00 in0.0 mm 0.00 in0.0 mm
01:30 AM 36.6°F2.6°C 34.5°F1.4°C 92% 2.0 mph N3.2 kmh N 2.0 mph3.2 kmh 30.28 in1025.4 mb 0.00 in0.0 mm 0.00 in0.0 mm 0.00 in0.0 mm
02:30 AM 36.0°F2.2°C 33.9°F1.1°C 92% Calm Calm 2.0 mph3.2 kmh 30.27 in1025.1 mb 0.00 in0.0 mm 0.00 in0.0 mm 0.00 in0.0 mm
03:30 AM 35.8°F2.1°C 33.7°F0.9°C 92% 2.0 mph NNE3.2 kmh NNE 3.0 mph4.8 kmh 30.27 in1025.1 mb 0.00 in0.0 mm 0.00 in0.0 mm 0.00 in0.0 mm
04:30 AM 35.0°F1.7°C 32.9°F0.5°C 92% 1.0 mph NNE1.6 kmh NNE 3.0 mph4.8 kmh 30.26 in1024.7 mb 0.00 in0.0 mm 0.00 in0.0 mm 0.00 in0.0 mm
05:00 AM 34.8°F1.6°C 32.7°F0.4°C 92% 1.0 mph NNE1.6 kmh NNE 4.0 mph6.4 kmh 30.25 in1024.4 mb 0.00 in0.0 mm 0.00 in0.0 mm 0.00 in0.0 mm
05:30 AM 34.1°F1.2°C 32.3°F0.2°C 93% Calm Calm 3.0 mph4.8 kmh 30.25 in1024.4 mb 0.00 in0.0 mm 0.00 in0.0 mm 0.00 in0.0 mm
06:00 AM 33.2°F0.7°C 31.6°F-0.2°C 94% 1.0 mph N1.6 kmh N 2.0 mph3.2 kmh 30.25 in1024.4 mb 0.00 in0.0 mm 0.00 in0.0 mm 0.00 in0.0 mm
07:00 AM 33.7°F0.9°C 32.4°F0.2°C 95% 2.0 mph N3.2 kmh N 3.0 mph4.8 kmh 30.26 in1024.7 mb 0.00 in0.0 mm 0.00 in0.0 mm 0.00 in0.0 mm
07:30 AM 34.7°F1.5°C 33.4°F0.8°C 95% Calm Calm 3.0 mph4.8 kmh 30.26 in1024.7 mb 0.00 in0.0 mm 0.00 in0.0 mm 0.00 in0.0 mm
08:30 AM 43.3°F6.3°C 38.2°F3.4°C 82% 1.0 mph NE1.6 kmh NE 3.0 mph4.8 kmh 30.25 in1024.4 mb 0.00 in0.0 mm 0.00 in0.0 mm 0.00 in0.0 mm
09:00 AM 47.4°F8.6°C 41.3°F5.2°C 79% 1.0 mph NE1.6 kmh NE 4.0 mph6.4 kmh 30.25 in1024.4 mb 0.00 in0.0 mm 0.00 in0.0 mm 0.00 in0.0 mm
10:00 AM 51.1°F10.6°C 40.5°F4.7°C 67% 2.0 mph SE3.2 kmh SE 5.1 mph8.2 kmh 30.23 in1023.7 mb 0.00 in0.0 mm 0.00 in0.0 mm 0.00 in0.0 mm
11:00 AM 54.9°F12.7°C 44.1°F6.7°C 67% 4.0 mph ESE6.4 kmh ESE 6.1 mph9.8 kmh 30.21 in1023.0 mb 0.00 in0.0 mm 0.00 in0.0 mm 0.00 in0.0 mm
11:30 AM 55.0°F12.8°C 42.6°F5.9°C 63% 3.0 mph SSE4.8 kmh SSE 7.1 mph11.4 kmh 30.19 in1022.4 mb 0.00 in0.0 mm 0.00 in0.0 mm 0.00 in0.0 mm
12:00 PM 56.2°F13.4°C 43.8°F6.6°C 63% 2.0 mph SE3.2 kmh SE 6.1 mph9.8 kmh 30.17 in1021.7 mb 0.00 in0.0 mm 0.00 in0.0 mm 0.00 in0.0 mm
01:00 PM 57.2°F14.0°C 44.3°F6.8°C 62% Calm Calm -- 30.13 in1020.3 mb 0.00 in0.0 mm 0.00 in0.0 mm 0.00 in0.0 mm
01:30 PM 56.9°F13.8°C 43.2°F6.2°C 60% 3.0 mph SW4.8 kmh SW 4.0 mph6.4 kmh 30.12 in1020.0 mb 0.00 in0.0 mm 0.00 in0.0 mm 0.00 in0.0 mm
02:30 PM 57.4°F14.1°C 43.6°F6.4°C 60% 2.0 mph SSW3.2 kmh SSW 3.0 mph4.8 kmh 30.11 in1019.6 mb 0.00 in0.0 mm 0.00 in0.0 mm 0.00 in0.0 mm
03:00 PM 57.0°F13.9°C 44.9°F7.2°C 64% 5.0 mph SSW8.0 kmh SSW 6.1 mph9.8 kmh 30.10 in1019.3 mb 0.00 in0.0 mm 0.00 in0.0 mm 0.00 in0.0 mm
04:00 PM 55.6°F13.1°C 44.8°F7.1°C 67% 2.0 mph SSW3.2 kmh SSW 3.0 mph4.8 kmh 30.08 in1018.6 mb 0.00 in0.0 mm 0.00 in0.0 mm 0.00 in0.0 mm
04:30 PM 53.5°F11.9°C 43.2°F6.2°C 68% 4.0 mph SSW6.4 kmh SSW 6.1 mph9.8 kmh 30.07 in1018.3 mb 0.00 in0.0 mm 0.00 in0.0 mm 0.00 in0.0 mm
05:00 PM 51.4°F10.8°C 43.4°F6.3°C 74% 1.0 mph SW1.6 kmh SW 3.0 mph4.8 kmh 30.09 in1019.0 mb 0.00 in0.0 mm 0.00 in0.0 mm 0.00 in0.0 mm
05:30 PM 49.4°F9.7°C 42.8°F6.0°C 78% Calm Calm -- 30.09 in1019.0 mb 0.00 in0.0 mm 0.00 in0.0 mm 0.00 in0.0 mm
06:30 PM 46.1°F7.8°C 42.2°F5.7°C 86% Calm Calm -- 30.10 in1019.3 mb 0.00 in0.0 mm 0.00 in0.0 mm 0.00 in0.0 mm
07:00 PM 44.5°F6.9°C 41.5°F5.3°C 89% Calm Calm -- 30.10 in1019.3 mb 0.00 in0.0 mm 0.00 in0.0 mm 0.00 in0.0 mm
07:30 PM 43.5°F6.4°C 41.1°F5.1°C 91% Calm Calm -- 30.11 in1019.6 mb 0.00 in0.0 mm 0.00 in0.0 mm 0.00 in0.0 mm
08:30 PM 41.7°F5.4°C 39.8°F4.3°C 93% Calm Calm -- 30.11 in1019.6 mb 0.00 in0.0 mm 0.00 in0.0 mm 0.00 in0.0 mm
09:00 PM 41.3°F5.2°C 39.7°F4.3°C 94% Calm Calm -- 30.13 in1020.3 mb 0.00 in0.0 mm 0.00 in0.0 mm 0.00 in0.0 mm
10:00 PM 39.7°F4.3°C 38.4°F3.6°C 95% Calm Calm -- 30.14 in1020.7 mb 0.00 in0.0 mm 0.00 in0.0 mm 0.00 in0.0 mm
10:30 PM 39.3°F4.1°C 38.0°F3.3°C 95% Calm Calm -- 30.14 in1020.7 mb 0.00 in0.0 mm 0.00 in0.0 mm 0.00 in0.0 mm
11:00 PM 39.3°F4.1°C 38.0°F3.3°C 95% Calm Calm -- 30.14 in1020.7 mb 0.00 in0.0 mm 0.00 in0.0 mm 0.00 in0.0 mm